sensor_id;sensor_type;location;lat;lon;timestamp;temperature;humidity
27384;DHT22;14851;51.166;4.760;2022-09-11T00:00:42;13.50;99.90
27384;DHT22;14851;51.166;4.760;2022-09-11T00:03:09;13.60;99.90
27384;DHT22;14851;51.166;4.760;2022-09-11T00:05:36;13.70;99.90
27384;DHT22;14851;51.166;4.760;2022-09-11T00:08:04;13.70;99.90
27384;DHT22;14851;51.166;4.760;2022-09-11T00:10:32;14.00;99.90
27384;DHT22;14851;51.166;4.760;2022-09-11T00:13:00;13.80;99.90
27384;DHT22;14851;51.166;4.760;2022-09-11T00:15:27;13.70;99.90
27384;DHT22;14851;51.166;4.760;2022-09-11T00:17:54;13.80;99.90
27384;DHT22;14851;51.166;4.760;2022-09-11T00:20:21;13.90;99.90
27384;DHT22;14851;51.166;4.760;2022-09-11T00:22:47;13.90;99.90
27384;DHT22;14851;51.166;4.760;2022-09-11T00:25:13;13.80;99.90
27384;DHT22;14851;51.166;4.760;2022-09-11T00:27:40;14.10;99.90
27384;DHT22;14851;51.166;4.760;2022-09-11T00:30:06;14.00;99.90
27384;DHT22;14851;51.166;4.760;2022-09-11T00:32:33;13.80;99.90
27384;DHT22;14851;51.166;4.760;2022-09-11T00:35:02;13.70;99.90
27384;DHT22;14851;51.166;4.760;2022-09-11T00:37:28;13.70;99.90
27384;DHT22;14851;51.166;4.760;2022-09-11T00:39:53;13.60;99.90
27384;DHT22;14851;51.166;4.760;2022-09-11T00:42:19;13.50;99.90
27384;DHT22;14851;51.166;4.760;2022-09-11T00:47:14;13.40;99.90
27384;DHT22;14851;51.166;4.760;2022-09-11T00:49:45;13.40;99.90
27384;DHT22;14851;51.166;4.760;2022-09-11T00:52:21;13.40;99.90
27384;DHT22;14851;51.166;4.760;2022-09-11T00:57:26;13.40;99.90
27384;DHT22;14851;51.166;4.760;2022-09-11T00:59:55;13.30;99.90
27384;DHT22;14851;51.166;4.760;2022-09-11T01:02:23;13.30;99.90
27384;DHT22;14851;51.166;4.760;2022-09-11T01:04:52;13.20;99.90
27384;DHT22;14851;51.166;4.760;2022-09-11T01:07:20;13.20;99.90
27384;DHT22;14851;51.166;4.760;2022-09-11T01:09:46;13.20;99.90
27384;DHT22;14851;51.166;4.760;2022-09-11T01:27:52;13.30;99.90
27384;DHT22;14851;51.166;4.760;2022-09-11T01:30:20;13.20;99.90
27384;DHT22;14851;51.166;4.760;2022-09-11T01:35:18;13.00;99.90
27384;DHT22;14851;51.166;4.760;2022-09-11T01:38:47;13.00;99.90
27384;DHT22;14851;51.166;4.760;2022-09-11T01:43:21;13.00;99.90
27384;DHT22;14851;51.166;4.760;2022-09-11T01:45:52;13.00;99.90
27384;DHT22;14851;51.166;4.760;2022-09-11T01:48:20;12.90;99.90
27384;DHT22;14851;51.166;4.760;2022-09-11T01:50:50;12.80;99.90
27384;DHT22;14851;51.166;4.760;2022-09-11T01:53:21;12.80;99.90
27384;DHT22;14851;51.166;4.760;2022-09-11T01:55:52;12.80;99.90
27384;DHT22;14851;51.166;4.760;2022-09-11T01:58:22;12.80;99.90
27384;DHT22;14851;51.166;4.760;2022-09-11T02:00:51;12.70;99.90
27384;DHT22;14851;51.166;4.760;2022-09-11T02:03:26;12.80;99.90
27384;DHT22;14851;51.166;4.760;2022-09-11T02:05:57;12.90;99.90
27384;DHT22;14851;51.166;4.760;2022-09-11T02:08:29;12.80;99.90
27384;DHT22;14851;51.166;4.760;2022-09-11T02:10:57;12.70;99.90
27384;DHT22;14851;51.166;4.760;2022-09-11T02:19:02;12.60;99.90
27384;DHT22;14851;51.166;4.760;2022-09-11T02:21:28;12.60;99.90
27384;DHT22;14851;51.166;4.760;2022-09-11T02:23:55;12.60;99.90
27384;DHT22;14851;51.166;4.760;2022-09-11T02:26:25;12.60;99.90
27384;DHT22;14851;51.166;4.760;2022-09-11T02:28:52;12.60;99.90
27384;DHT22;14851;51.166;4.760;2022-09-11T02:31:18;12.50;99.90
27384;DHT22;14851;51.166;4.760;2022-09-11T02:33:45;12.50;99.90
27384;DHT22;14851;51.166;4.760;2022-09-11T02:36:19;12.50;99.90
27384;DHT22;14851;51.166;4.760;2022-09-11T02:59:52;12.70;99.90
27384;DHT22;14851;51.166;4.760;2022-09-11T03:02:19;12.60;99.90
27384;DHT22;14851;51.166;4.760;2022-09-11T03:04:47;12.60;99.90
27384;DHT22;14851;51.166;4.760;2022-09-11T03:07:13;12.50;99.90
27384;DHT22;14851;51.166;4.760;2022-09-11T03:09:39;12.50;99.90
27384;DHT22;14851;51.166;4.760;2022-09-11T03:12:13;12.50;99.90
27384;DHT22;14851;51.166;4.760;2022-09-11T03:14:39;12.40;99.90
27384;DHT22;14851;51.166;4.760;2022-09-11T03:17:05;12.60;99.90
27384;DHT22;14851;51.166;4.760;2022-09-11T03:19:32;12.70;99.90
27384;DHT22;14851;51.166;4.760;2022-09-11T03:21:59;12.70;99.90
27384;DHT22;14851;51.166;4.760;2022-09-11T03:24:25;12.60;99.90
27384;DHT22;14851;51.166;4.760;2022-09-11T03:26:51;12.50;99.90
27384;DHT22;14851;51.166;4.760;2022-09-11T03:29:16;12.60;99.90
27384;DHT22;14851;51.166;4.760;2022-09-11T03:31:45;12.50;99.90
27384;DHT22;14851;51.166;4.760;2022-09-11T03:34:11;12.60;99.90
27384;DHT22;14851;51.166;4.760;2022-09-11T03:36:39;12.60;99.90
27384;DHT22;14851;51.166;4.760;2022-09-11T03:39:04;12.70;99.90
27384;DHT22;14851;51.166;4.760;2022-09-11T03:41:31;12.80;99.90
27384;DHT22;14851;51.166;4.760;2022-09-11T03:43:57;12.80;99.90
27384;DHT22;14851;51.166;4.760;2022-09-11T03:46:23;12.70;99.90
27384;DHT22;14851;51.166;4.760;2022-09-11T03:48:50;12.70;99.90
27384;DHT22;14851;51.166;4.760;2022-09-11T03:51:18;12.70;99.90
27384;DHT22;14851;51.166;4.760;2022-09-11T03:53:45;12.80;99.90
27384;DHT22;14851;51.166;4.760;2022-09-11T03:56:11;12.90;99.90
27384;DHT22;14851;51.166;4.760;2022-09-11T03:58:43;12.90;99.90
27384;DHT22;14851;51.166;4.760;2022-09-11T04:01:12;12.80;99.90
27384;DHT22;14851;51.166;4.760;2022-09-11T04:03:41;12.90;99.90
27384;DHT22;14851;51.166;4.760;2022-09-11T04:06:13;13.00;99.90
27384;DHT22;14851;51.166;4.760;2022-09-11T04:08:39;13.00;99.90
27384;DHT22;14851;51.166;4.760;2022-09-11T04:11:10;12.80;99.90
27384;DHT22;14851;51.166;4.760;2022-09-11T04:13:36;12.90;99.90
27384;DHT22;14851;51.166;4.760;2022-09-11T04:16:07;12.90;99.90
27384;DHT22;14851;51.166;4.760;2022-09-11T04:18:36;12.80;99.90
27384;DHT22;14851;51.166;4.760;2022-09-11T04:21:06;12.80;99.90
27384;DHT22;14851;51.166;4.760;2022-09-11T04:23:32;12.70;99.90
27384;DHT22;14851;51.166;4.760;2022-09-11T04:25:59;12.80;99.90
27384;DHT22;14851;51.166;4.760;2022-09-11T04:28:29;12.70;99.90
27384;DHT22;14851;51.166;4.760;2022-09-11T04:31:02;12.70;99.90
27384;DHT22;14851;51.166;4.760;2022-09-11T04:33:30;12.70;99.90
27384;DHT22;14851;51.166;4.760;2022-09-11T04:35:56;12.70;99.90
27384;DHT22;14851;51.166;4.760;2022-09-11T04:38:22;12.60;99.90
27384;DHT22;14851;51.166;4.760;2022-09-11T04:40:48;12.50;99.90
27384;DHT22;14851;51.166;4.760;2022-09-11T04:43:15;12.50;99.90
27384;DHT22;14851;51.166;4.760;2022-09-11T04:45:45;12.60;99.90
27384;DHT22;14851;51.166;4.760;2022-09-11T04:48:11;12.60;99.90
27384;DHT22;14851;51.166;4.760;2022-09-11T04:50:37;12.60;99.90
27384;DHT22;14851;51.166;4.760;2022-09-11T04:53:12;12.50;99.90
27384;DHT22;14851;51.166;4.760;2022-09-11T04:55:38;12.60;99.90
27384;DHT22;14851;51.166;4.760;2022-09-11T04:58:04;12.70;99.90
27384;DHT22;14851;51.166;4.760;2022-09-11T05:00:33;12.60;99.90
27384;DHT22;14851;51.166;4.760;2022-09-11T05:02:59;12.60;99.90
27384;DHT22;14851;51.166;4.760;2022-09-11T05:05:26;12.50;99.90
27384;DHT22;14851;51.166;4.760;2022-09-11T05:07:53;12.50;99.90
27384;DHT22;14851;51.166;4.760;2022-09-11T05:10:18;12.60;99.90
27384;DHT22;14851;51.166;4.760;2022-09-11T05:12:45;12.50;99.90
27384;DHT22;14851;51.166;4.760;2022-09-11T05:15:11;12.50;99.90
27384;DHT22;14851;51.166;4.760;2022-09-11T05:17:38;12.50;99.90
27384;DHT22;14851;51.166;4.760;2022-09-11T05:20:08;12.50;99.90
27384;DHT22;14851;51.166;4.760;2022-09-11T05:22:34;12.60;99.90
27384;DHT22;14851;51.166;4.760;2022-09-11T05:25:01;12.60;99.90
27384;DHT22;14851;51.166;4.760;2022-09-11T05:27:28;12.50;99.90
27384;DHT22;14851;51.166;4.760;2022-09-11T05:29:56;12.60;99.90
27384;DHT22;14851;51.166;4.760;2022-09-11T05:32:22;12.80;99.90
27384;DHT22;14851;51.166;4.760;2022-09-11T05:34:49;12.90;99.90
27384;DHT22;14851;51.166;4.760;2022-09-11T05:37:18;12.90;99.90
27384;DHT22;14851;51.166;4.760;2022-09-11T05:39:46;12.90;99.90
27384;DHT22;14851;51.166;4.760;2022-09-11T05:42:14;12.90;99.90
27384;DHT22;14851;51.166;4.760;2022-09-11T05:44:42;13.00;99.90
27384;DHT22;14851;51.166;4.760;2022-09-11T05:47:08;12.90;99.90
27384;DHT22;14851;51.166;4.760;2022-09-11T05:49:34;12.90;99.90
27384;DHT22;14851;51.166;4.760;2022-09-11T05:52:01;13.00;99.90
27384;DHT22;14851;51.166;4.760;2022-09-11T05:54:28;12.90;99.90
27384;DHT22;14851;51.166;4.760;2022-09-11T05:56:54;12.90;99.90
27384;DHT22;14851;51.166;4.760;2022-09-11T05:59:23;13.00;99.90
27384;DHT22;14851;51.166;4.760;2022-09-11T06:01:53;13.00;99.90
27384;DHT22;14851;51.166;4.760;2022-09-11T06:04:33;12.90;99.90
27384;DHT22;14851;51.166;4.760;2022-09-11T06:06:59;12.90;99.90
27384;DHT22;14851;51.166;4.760;2022-09-11T06:09:26;13.10;99.90
27384;DHT22;14851;51.166;4.760;2022-09-11T06:11:53;13.10;99.90
27384;DHT22;14851;51.166;4.760;2022-09-11T06:14:19;13.10;99.90
27384;DHT22;14851;51.166;4.760;2022-09-11T06:16:46;13.10;99.90
27384;DHT22;14851;51.166;4.760;2022-09-11T06:19:16;13.10;99.90
27384;DHT22;14851;51.166;4.760;2022-09-11T06:21:44;13.10;99.90
27384;DHT22;14851;51.166;4.760;2022-09-11T06:24:29;13.10;99.90
27384;DHT22;14851;51.166;4.760;2022-09-11T06:26:56;13.00;99.90
27384;DHT22;14851;51.166;4.760;2022-09-11T06:29:23;13.20;99.90
27384;DHT22;14851;51.166;4.760;2022-09-11T06:31:49;13.20;99.90
27384;DHT22;14851;51.166;4.760;2022-09-11T06:34:18;13.20;99.90
27384;DHT22;14851;51.166;4.760;2022-09-11T06:36:45;13.10;99.90
27384;DHT22;14851;51.166;4.760;2022-09-11T06:39:11;13.20;99.90
27384;DHT22;14851;51.166;4.760;2022-09-11T06:41:37;13.30;99.90
27384;DHT22;14851;51.166;4.760;2022-09-11T06:44:09;13.30;99.90
27384;DHT22;14851;51.166;4.760;2022-09-11T06:46:39;13.30;99.90
27384;DHT22;14851;51.166;4.760;2022-09-11T06:49:07;13.30;99.90
27384;DHT22;14851;51.166;4.760;2022-09-11T06:51:53;13.30;99.90
27384;DHT22;14851;51.166;4.760;2022-09-11T06:54:19;13.40;99.90
27384;DHT22;14851;51.166;4.760;2022-09-11T06:56:45;13.40;99.90
27384;DHT22;14851;51.166;4.760;2022-09-11T06:59:13;13.40;99.90
27384;DHT22;14851;51.166;4.760;2022-09-11T07:01:39;13.50;99.90
27384;DHT22;14851;51.166;4.760;2022-09-11T07:04:04;13.60;99.90
27384;DHT22;14851;51.166;4.760;2022-09-11T07:06:32;13.50;99.90
27384;DHT22;14851;51.166;4.760;2022-09-11T07:09:00;13.50;99.90
27384;DHT22;14851;51.166;4.760;2022-09-11T07:11:35;13.40;99.90
27384;DHT22;14851;51.166;4.760;2022-09-11T07:14:01;13.60;99.90
27384;DHT22;14851;51.166;4.760;2022-09-11T07:16:32;13.70;99.90
27384;DHT22;14851;51.166;4.760;2022-09-11T07:18:58;13.80;99.90
27384;DHT22;14851;51.166;4.760;2022-09-11T07:21:25;13.80;99.90
27384;DHT22;14851;51.166;4.760;2022-09-11T07:23:57;13.70;99.90
27384;DHT22;14851;51.166;4.760;2022-09-11T07:26:25;13.80;99.90
27384;DHT22;14851;51.166;4.760;2022-09-11T07:28:56;13.90;99.90
27384;DHT22;14851;51.166;4.760;2022-09-11T07:31:23;14.10;99.90
27384;DHT22;14851;51.166;4.760;2022-09-11T07:33:51;14.10;99.90
27384;DHT22;14851;51.166;4.760;2022-09-11T07:36:19;14.10;99.90
27384;DHT22;14851;51.166;4.760;2022-09-11T07:38:49;14.00;99.90
27384;DHT22;14851;51.166;4.760;2022-09-11T07:41:16;14.00;99.90
27384;DHT22;14851;51.166;4.760;2022-09-11T07:43:55;14.10;99.90
27384;DHT22;14851;51.166;4.760;2022-09-11T07:46:23;14.30;99.90
27384;DHT22;14851;51.166;4.760;2022-09-11T07:48:49;14.30;99.90
27384;DHT22;14851;51.166;4.760;2022-09-11T07:51:15;14.20;99.90
27384;DHT22;14851;51.166;4.760;2022-09-11T07:53:45;14.30;99.90
27384;DHT22;14851;51.166;4.760;2022-09-11T07:56:16;14.40;99.90
27384;DHT22;14851;51.166;4.760;2022-09-11T07:58:43;14.40;99.90
27384;DHT22;14851;51.166;4.760;2022-09-11T08:01:13;14.40;99.90
27384;DHT22;14851;51.166;4.760;2022-09-11T08:03:40;14.50;99.90
27384;DHT22;14851;51.166;4.760;2022-09-11T08:06:11;14.60;99.90
27384;DHT22;14851;51.166;4.760;2022-09-11T08:08:41;14.70;99.90
27384;DHT22;14851;51.166;4.760;2022-09-11T08:11:09;14.60;99.90
27384;DHT22;14851;51.166;4.760;2022-09-11T08:13:36;14.70;99.90
27384;DHT22;14851;51.166;4.760;2022-09-11T08:16:02;14.70;99.90
27384;DHT22;14851;51.166;4.760;2022-09-11T08:18:29;14.70;99.90
27384;DHT22;14851;51.166;4.760;2022-09-11T08:21:00;14.80;99.90
27384;DHT22;14851;51.166;4.760;2022-09-11T08:23:28;14.80;99.90
27384;DHT22;14851;51.166;4.760;2022-09-11T08:26:09;14.90;99.90
27384;DHT22;14851;51.166;4.760;2022-09-11T08:28:38;14.90;99.90
27384;DHT22;14851;51.166;4.760;2022-09-11T08:31:05;15.00;99.90
27384;DHT22;14851;51.166;4.760;2022-09-11T08:33:31;15.00;99.90
27384;DHT22;14851;51.166;4.760;2022-09-11T08:36:02;15.10;99.90
27384;DHT22;14851;51.166;4.760;2022-09-11T08:38:31;15.10;99.90
27384;DHT22;14851;51.166;4.760;2022-09-11T08:40:58;15.20;99.90
27384;DHT22;14851;51.166;4.760;2022-09-11T08:43:33;15.20;99.90
27384;DHT22;14851;51.166;4.760;2022-09-11T08:46:02;15.30;99.90
27384;DHT22;14851;51.166;4.760;2022-09-11T08:51:15;15.40;99.90
27384;DHT22;14851;51.166;4.760;2022-09-11T08:53:43;15.40;99.90
27384;DHT22;14851;51.166;4.760;2022-09-11T08:56:17;15.50;99.90
27384;DHT22;14851;51.166;4.760;2022-09-11T09:01:31;15.50;99.90
27384;DHT22;14851;51.166;4.760;2022-09-11T09:04:18;15.50;99.90
27384;DHT22;14851;51.166;4.760;2022-09-11T09:14:59;15.70;99.90
27384;DHT22;14851;51.166;4.760;2022-09-11T09:20:04;15.80;99.90
27384;DHT22;14851;51.166;4.760;2022-09-11T09:25:24;15.90;99.90
27384;DHT22;14851;51.166;4.760;2022-09-11T09:27:56;15.90;99.90
27384;DHT22;14851;51.166;4.760;2022-09-11T09:30:24;15.90;99.90
27384;DHT22;14851;51.166;4.760;2022-09-11T09:33:04;16.00;99.90
27384;DHT22;14851;51.166;4.760;2022-09-11T09:35:43;16.20;99.90
27384;DHT22;14851;51.166;4.760;2022-09-11T09:38:16;16.20;99.90
27384;DHT22;14851;51.166;4.760;2022-09-11T09:48:21;16.20;99.90
27384;DHT22;14851;51.166;4.760;2022-09-11T09:50:50;16.50;99.90
27384;DHT22;14851;51.166;4.760;2022-09-11T09:53:28;16.50;99.90
27384;DHT22;14851;51.166;4.760;2022-09-11T09:55:57;16.40;99.90
27384;DHT22;14851;51.166;4.760;2022-09-11T09:58:25;16.40;99.90
27384;DHT22;14851;51.166;4.760;2022-09-11T10:00:54;16.60;99.90
27384;DHT22;14851;51.166;4.760;2022-09-11T10:03:21;16.60;99.90
27384;DHT22;14851;51.166;4.760;2022-09-11T10:05:49;16.60;99.90
27384;DHT22;14851;51.166;4.760;2022-09-11T10:10:45;16.70;99.90
27384;DHT22;14851;51.166;4.760;2022-09-11T10:13:19;16.70;99.90
27384;DHT22;14851;51.166;4.760;2022-09-11T10:15:50;16.60;99.90
27384;DHT22;14851;51.166;4.760;2022-09-11T10:26:47;16.80;99.90
27384;DHT22;14851;51.166;4.760;2022-09-11T10:29:26;17.00;99.90
27384;DHT22;14851;51.166;4.760;2022-09-11T10:34:21;17.40;99.90
27384;DHT22;14851;51.166;4.760;2022-09-11T10:39:18;17.40;99.90
27384;DHT22;14851;51.166;4.760;2022-09-11T10:41:47;17.40;99.90
27384;DHT22;14851;51.166;4.760;2022-09-11T10:44:15;17.40;99.90
27384;DHT22;14851;51.166;4.760;2022-09-11T10:46:44;17.30;99.90
27384;DHT22;14851;51.166;4.760;2022-09-11T10:49:29;17.40;99.90
27384;DHT22;14851;51.166;4.760;2022-09-11T10:57:21;17.30;99.90
27384;DHT22;14851;51.166;4.760;2022-09-11T11:00:07;17.40;99.90
27384;DHT22;14851;51.166;4.760;2022-09-11T11:02:37;17.50;99.90
27384;DHT22;14851;51.166;4.760;2022-09-11T11:05:06;17.50;99.90
27384;DHT22;14851;51.166;4.760;2022-09-11T11:07:41;17.70;99.90
27384;DHT22;14851;51.166;4.760;2022-09-11T11:15:51;17.70;99.90
27384;DHT22;14851;51.166;4.760;2022-09-11T11:18:23;17.70;99.90
27384;DHT22;14851;51.166;4.760;2022-09-11T11:23:20;17.80;99.90
27384;DHT22;14851;51.166;4.760;2022-09-11T11:36:46;18.00;99.90
27384;DHT22;14851;51.166;4.760;2022-09-11T11:39:00;18.00;99.90
27384;DHT22;14851;51.166;4.760;2022-09-11T11:41:41;18.10;99.90
27384;DHT22;14851;51.166;4.760;2022-09-11T11:44:24;18.30;99.90
27384;DHT22;14851;51.166;4.760;2022-09-11T11:46:53;18.30;99.90
27384;DHT22;14851;51.166;4.760;2022-09-11T11:49:27;18.30;99.90
27384;DHT22;14851;51.166;4.760;2022-09-11T11:52:02;18.30;99.90
27384;DHT22;14851;51.166;4.760;2022-09-11T11:54:50;18.20;99.90
27384;DHT22;14851;51.166;4.760;2022-09-11T11:57:19;18.60;99.90
27384;DHT22;14851;51.166;4.760;2022-09-11T12:03:14;19.20;99.90
27384;DHT22;14851;51.166;4.760;2022-09-11T12:05:15;19.40;99.90
27384;DHT22;14851;51.166;4.760;2022-09-11T12:07:44;19.60;99.90
27384;DHT22;14851;51.166;4.760;2022-09-11T12:10:29;19.50;99.90
27384;DHT22;14851;51.166;4.760;2022-09-11T12:12:58;19.70;99.90
27384;DHT22;14851;51.166;4.760;2022-09-11T12:15:28;19.70;99.90
27384;DHT22;14851;51.166;4.760;2022-09-11T12:18:16;19.60;99.90
27384;DHT22;14851;51.166;4.760;2022-09-11T12:20:44;19.30;99.90
27384;DHT22;14851;51.166;4.760;2022-09-11T12:28:40;19.40;99.90
27384;DHT22;14851;51.166;4.760;2022-09-11T12:31:07;19.10;99.90
27384;DHT22;14851;51.166;4.760;2022-09-11T12:36:06;19.10;99.90
27384;DHT22;14851;51.166;4.760;2022-09-11T12:38:35;19.20;99.90
27384;DHT22;14851;51.166;4.760;2022-09-11T12:41:11;19.50;99.90
27384;DHT22;14851;51.166;4.760;2022-09-11T12:48:52;19.40;99.90
27384;DHT22;14851;51.166;4.760;2022-09-11T12:51:20;19.20;99.90
27384;DHT22;14851;51.166;4.760;2022-09-11T12:53:47;19.30;99.90
27384;DHT22;14851;51.166;4.760;2022-09-11T12:56:18;19.40;99.90
27384;DHT22;14851;51.166;4.760;2022-09-11T12:58:50;19.40;99.90
27384;DHT22;14851;51.166;4.760;2022-09-11T13:01:51;19.40;99.90
27384;DHT22;14851;51.166;4.760;2022-09-11T13:06:42;19.70;99.90
27384;DHT22;14851;51.166;4.760;2022-09-11T13:09:26;19.70;99.90
27384;DHT22;14851;51.166;4.760;2022-09-11T13:11:55;19.90;99.90
27384;DHT22;14851;51.166;4.760;2022-09-11T13:16:58;19.80;99.90
27384;DHT22;14851;51.166;4.760;2022-09-11T13:19:33;19.90;99.90
27384;DHT22;14851;51.166;4.760;2022-09-11T13:22:00;20.00;99.90
27384;DHT22;14851;51.166;4.760;2022-09-11T13:24:30;20.10;99.90
27384;DHT22;14851;51.166;4.760;2022-09-11T13:26:57;20.20;99.90
27384;DHT22;14851;51.166;4.760;2022-09-11T13:29:27;20.30;99.90
27384;DHT22;14851;51.166;4.760;2022-09-11T13:31:55;20.30;99.90
27384;DHT22;14851;51.166;4.760;2022-09-11T13:34:22;20.10;99.90
27384;DHT22;14851;51.166;4.760;2022-09-11T13:36:49;20.10;99.90
27384;DHT22;14851;51.166;4.760;2022-09-11T13:39:16;20.10;99.90
27384;DHT22;14851;51.166;4.760;2022-09-11T13:41:44;20.20;99.90
27384;DHT22;14851;51.166;4.760;2022-09-11T13:44:57;20.30;99.90
27384;DHT22;14851;51.166;4.760;2022-09-11T13:46:58;20.20;99.90
27384;DHT22;14851;51.166;4.760;2022-09-11T13:49:27;20.30;99.90
27384;DHT22;14851;51.166;4.760;2022-09-11T13:51:59;20.40;99.90
27384;DHT22;14851;51.166;4.760;2022-09-11T13:54:35;20.50;99.90
27384;DHT22;14851;51.166;4.760;2022-09-11T13:59:35;20.60;99.90
27384;DHT22;14851;51.166;4.760;2022-09-11T14:04:56;20.70;99.90
27384;DHT22;14851;51.166;4.760;2022-09-11T14:07:25;20.60;99.90
27384;DHT22;14851;51.166;4.760;2022-09-11T14:10:04;20.60;99.90
27384;DHT22;14851;51.166;4.760;2022-09-11T14:12:31;20.60;99.90
27384;DHT22;14851;51.166;4.760;2022-09-11T14:14:58;20.60;99.90
27384;DHT22;14851;51.166;4.760;2022-09-11T14:17:27;20.60;99.90
27384;DHT22;14851;51.166;4.760;2022-09-11T14:19:54;20.60;99.90
27384;DHT22;14851;51.166;4.760;2022-09-11T14:22:25;20.70;99.90
27384;DHT22;14851;51.166;4.760;2022-09-11T14:24:53;20.70;99.90
27384;DHT22;14851;51.166;4.760;2022-09-11T14:29:55;20.60;99.90
27384;DHT22;14851;51.166;4.760;2022-09-11T14:32:34;20.60;99.90
27384;DHT22;14851;51.166;4.760;2022-09-11T14:35:05;20.50;99.90
27384;DHT22;14851;51.166;4.760;2022-09-11T14:37:40;20.50;99.90
27384;DHT22;14851;51.166;4.760;2022-09-11T14:40:13;20.60;99.90
27384;DHT22;14851;51.166;4.760;2022-09-11T14:42:38;20.60;99.90
27384;DHT22;14851;51.166;4.760;2022-09-11T14:45:09;20.70;99.90
27384;DHT22;14851;51.166;4.760;2022-09-11T14:47:35;20.70;99.90
27384;DHT22;14851;51.166;4.760;2022-09-11T14:50:01;20.70;99.90
27384;DHT22;14851;51.166;4.760;2022-09-11T14:52:28;20.80;99.90
27384;DHT22;14851;51.166;4.760;2022-09-11T14:54:59;20.80;99.90
27384;DHT22;14851;51.166;4.760;2022-09-11T14:57:27;20.90;99.90
27384;DHT22;14851;51.166;4.760;2022-09-11T14:59:55;20.80;99.90
27384;DHT22;14851;51.166;4.760;2022-09-11T15:02:22;20.80;99.90
27384;DHT22;14851;51.166;4.760;2022-09-11T15:04:49;20.80;99.90
27384;DHT22;14851;51.166;4.760;2022-09-11T15:07:16;20.80;99.90
27384;DHT22;14851;51.166;4.760;2022-09-11T15:09:46;20.80;99.90
27384;DHT22;14851;51.166;4.760;2022-09-11T15:12:12;20.70;99.90
27384;DHT22;14851;51.166;4.760;2022-09-11T15:14:38;20.70;99.90
27384;DHT22;14851;51.166;4.760;2022-09-11T15:17:06;20.80;99.90
27384;DHT22;14851;51.166;4.760;2022-09-11T15:19:32;20.90;99.90
27384;DHT22;14851;51.166;4.760;2022-09-11T15:22:02;21.00;99.90
27384;DHT22;14851;51.166;4.760;2022-09-11T15:24:28;21.00;99.90
27384;DHT22;14851;51.166;4.760;2022-09-11T15:26:55;21.00;99.90
27384;DHT22;14851;51.166;4.760;2022-09-11T15:29:23;20.90;99.90
27384;DHT22;14851;51.166;4.760;2022-09-11T15:31:53;20.90;99.90
27384;DHT22;14851;51.166;4.760;2022-09-11T15:34:20;20.90;99.90
27384;DHT22;14851;51.166;4.760;2022-09-11T15:36:50;20.90;99.90
27384;DHT22;14851;51.166;4.760;2022-09-11T15:39:17;20.80;99.90
27384;DHT22;14851;51.166;4.760;2022-09-11T15:41:45;20.80;99.90
27384;DHT22;14851;51.166;4.760;2022-09-11T15:44:13;20.80;99.90
27384;DHT22;14851;51.166;4.760;2022-09-11T15:46:43;20.80;99.90
27384;DHT22;14851;51.166;4.760;2022-09-11T15:49:10;20.90;99.90
27384;DHT22;14851;51.166;4.760;2022-09-11T15:51:36;20.90;99.90
27384;DHT22;14851;51.166;4.760;2022-09-11T15:54:05;21.00;99.90
27384;DHT22;14851;51.166;4.760;2022-09-11T15:56:31;21.00;99.90
27384;DHT22;14851;51.166;4.760;2022-09-11T15:59:00;21.00;99.90
27384;DHT22;14851;51.166;4.760;2022-09-11T16:01:30;21.00;99.90
27384;DHT22;14851;51.166;4.760;2022-09-11T16:04:01;20.90;99.90
27384;DHT22;14851;51.166;4.760;2022-09-11T16:06:30;20.80;99.90
27384;DHT22;14851;51.166;4.760;2022-09-11T16:08:56;20.80;99.90
27384;DHT22;14851;51.166;4.760;2022-09-11T16:11:23;20.80;99.90
27384;DHT22;14851;51.166;4.760;2022-09-11T16:13:50;20.80;99.90
27384;DHT22;14851;51.166;4.760;2022-09-11T16:16:17;20.80;99.90
27384;DHT22;14851;51.166;4.760;2022-09-11T16:18:44;20.70;99.90
27384;DHT22;14851;51.166;4.760;2022-09-11T16:21:11;20.80;99.90
27384;DHT22;14851;51.166;4.760;2022-09-11T16:23:37;20.70;99.90
27384;DHT22;14851;51.166;4.760;2022-09-11T16:26:05;20.80;99.90
27384;DHT22;14851;51.166;4.760;2022-09-11T16:28:37;20.90;99.90
27384;DHT22;14851;51.166;4.760;2022-09-11T16:31:05;20.80;99.90
27384;DHT22;14851;51.166;4.760;2022-09-11T16:33:31;20.80;99.90
27384;DHT22;14851;51.166;4.760;2022-09-11T16:36:07;20.70;99.90
27384;DHT22;14851;51.166;4.760;2022-09-11T16:38:36;20.70;99.90
27384;DHT22;14851;51.166;4.760;2022-09-11T16:41:12;20.60;99.90
27384;DHT22;14851;51.166;4.760;2022-09-11T16:43:41;20.60;99.90
27384;DHT22;14851;51.166;4.760;2022-09-11T16:46:09;20.60;99.90
27384;DHT22;14851;51.166;4.760;2022-09-11T16:48:37;20.60;99.90
27384;DHT22;14851;51.166;4.760;2022-09-11T16:51:02;20.50;99.90
27384;DHT22;14851;51.166;4.760;2022-09-11T16:53:29;20.60;99.90
27384;DHT22;14851;51.166;4.760;2022-09-11T16:55:56;20.60;99.90
27384;DHT22;14851;51.166;4.760;2022-09-11T16:58:26;20.70;99.90
27384;DHT22;14851;51.166;4.760;2022-09-11T17:00:53;20.60;99.90
27384;DHT22;14851;51.166;4.760;2022-09-11T17:03:20;20.60;99.90
27384;DHT22;14851;51.166;4.760;2022-09-11T17:05:48;20.50;99.90
27384;DHT22;14851;51.166;4.760;2022-09-11T17:08:16;20.40;99.90
27384;DHT22;14851;51.166;4.760;2022-09-11T17:10:43;20.40;99.90
27384;DHT22;14851;51.166;4.760;2022-09-11T17:13:10;20.30;99.90
27384;DHT22;14851;51.166;4.760;2022-09-11T17:15:37;20.30;99.90
27384;DHT22;14851;51.166;4.760;2022-09-11T17:18:03;20.30;99.90
27384;DHT22;14851;51.166;4.760;2022-09-11T17:20:32;20.30;99.90
27384;DHT22;14851;51.166;4.760;2022-09-11T17:23:00;20.20;99.90
27384;DHT22;14851;51.166;4.760;2022-09-11T17:25:26;20.10;99.90
27384;DHT22;14851;51.166;4.760;2022-09-11T17:27:53;20.20;99.90
27384;DHT22;14851;51.166;4.760;2022-09-11T17:30:19;20.20;99.90
27384;DHT22;14851;51.166;4.760;2022-09-11T17:32:48;20.10;99.90
27384;DHT22;14851;51.166;4.760;2022-09-11T17:35:14;20.00;99.90
27384;DHT22;14851;51.166;4.760;2022-09-11T17:37:40;19.90;99.90
27384;DHT22;14851;51.166;4.760;2022-09-11T17:40:09;19.80;99.90
27384;DHT22;14851;51.166;4.760;2022-09-11T17:42:38;19.70;99.90
27384;DHT22;14851;51.166;4.760;2022-09-11T17:45:04;19.60;99.90
27384;DHT22;14851;51.166;4.760;2022-09-11T17:47:32;19.50;99.90
27384;DHT22;14851;51.166;4.760;2022-09-11T17:49:58;19.50;99.90
27384;DHT22;14851;51.166;4.760;2022-09-11T17:52:26;19.40;99.90
27384;DHT22;14851;51.166;4.760;2022-09-11T17:54:53;19.30;99.90
27384;DHT22;14851;51.166;4.760;2022-09-11T17:57:19;19.30;99.90
27384;DHT22;14851;51.166;4.760;2022-09-11T17:59:45;19.10;99.90
27384;DHT22;14851;51.166;4.760;2022-09-11T18:02:12;19.10;99.90
27384;DHT22;14851;51.166;4.760;2022-09-11T18:04:39;19.00;99.90
27384;DHT22;14851;51.166;4.760;2022-09-11T18:07:05;19.00;99.90
27384;DHT22;14851;51.166;4.760;2022-09-11T18:09:31;18.70;99.90